Time;durP1;ratioP1;P1;durP2;ratioP2;P2;SDS_P1;SDS_P2;PMS_P1;PMS_P2;Temp;Humidity;BMP_temperature;BMP_pressure;BME280_temperature;BME280_humidity;BME280_pressure;Samples;Min_cycle;Max_cycle;Signal;HPM_P1;HPM_P2
2022/02/04 00:21:24;;;;;;;4.63;2.10;;;;;;;5.04;100.00;98680.78;4954043;29;20034;-74
2022/02/04 00:23:50;;;;;;;3.20;2.25;;;;;;;5.14;100.00;98682.50;4953934;29;20015;-74
2022/02/04 00:26:20;;;;;;;2.75;1.90;;;;;;;5.17;100.00;98687.63;4953728;29;20102;-75
2022/02/04 00:33:59;;;;;;;1.60;1.42;;;;;;;5.26;100.00;98692.78;4946826;29;20031;-75
2022/02/04 00:36:37;;;;;;;2.92;1.35;;;;;;;5.26;100.00;98689.38;4953689;29;20039;-74
2022/02/04 00:39:07;;;;;;;1.73;1.63;;;;;;;5.28;100.00;98688.53;4953969;29;20026;-74
2022/02/04 00:41:37;;;;;;;1.83;1.73;;;;;;;5.34;100.00;98693.69;4953639;29;20027;-74
2022/02/04 00:44:03;;;;;;;4.07;1.85;;;;;;;5.26;100.00;98687.66;4953703;29;20029;-74
2022/02/04 00:47:15;;;;;;;1.73;1.63;;;;;;;5.44;100.00;98691.13;4953702;29;20045;-74
2022/02/04 00:54:26;;;;;;;2.67;1.83;;;;;;;5.75;100.00;98697.97;4953660;29;20090;-74
2022/02/04 05:30:14;;;;;;;1.58;1.50;;;;;;;5.23;100.00;98775.00;4938278;29;20103;-74
2022/02/04 05:32:40;;;;;;;0.70;0.70;;;;;;;5.17;100.00;98772.41;4942155;29;20019;-75
2022/02/04 05:35:07;;;;;;;1.63;1.52;;;;;;;5.15;100.00;98772.41;4948638;28;20031;-74
2022/02/04 05:37:37;;;;;;;2.05;1.77;;;;;;;5.14;100.00;98769.84;4956800;28;20415;-74
2022/02/04 05:40:04;;;;;;;2.17;2.08;;;;;;;5.15;100.00;98771.53;4956967;28;20054;-74
2022/02/04 05:42:33;;;;;;;1.58;1.45;;;;;;;5.16;100.00;98768.13;4956803;28;20452;-74
2022/02/04 05:45:17;;;;;;;1.63;1.52;;;;;;;5.12;100.00;98774.09;4956667;28;20461;-74
2022/02/04 05:47:42;;;;;;;1.10;1.10;;;;;;;5.11;100.00;98774.94;4956376;28;20043;-74
2022/02/04 05:53:19;;;;;;;3.10;1.38;;;;;;;5.24;100.00;98781.84;4953612;28;20046;-74
2022/02/04 05:56:06;;;;;;;2.47;1.75;;;;;;;5.32;100.00;98776.75;4956283;28;20111;-74
2022/02/04 05:58:54;;;;;;;1.10;1.10;;;;;;;5.27;100.00;98781.88;4956636;28;20063;-75
2022/02/04 06:06:42;;;;;;;1.58;1.48;;;;;;;5.56;100.00;98781.06;4954244;29;20032;-74
2022/02/04 06:15:09;;;;;;;2.88;2.38;;;;;;;5.46;100.00;98798.16;4878178;29;20482;-74
2022/02/04 06:23:10;;;;;;;2.42;1.38;;;;;;;5.28;100.00;98806.69;4956164;29;20030;-74
2022/02/04 06:25:37;;;;;;;0.95;0.90;;;;;;;5.16;100.00;98794.66;4955919;28;20027;-74
2022/02/04 06:28:03;;;;;;;0.70;0.70;;;;;;;5.04;100.00;98798.91;4955849;28;20035;-74
2022/02/04 06:30:28;;;;;;;2.65;2.45;;;;;;;5.02;100.00;98790.31;4955938;28;20503;-74
2022/02/04 06:32:54;;;;;;;1.80;1.70;;;;;;;5.16;100.00;98793.78;4951932;28;20404;-74
2022/02/04 06:35:19;;;;;;;1.23;1.23;;;;;;;5.24;100.00;98802.41;4947628;28;20028;-74
2022/02/04 06:37:44;;;;;;;0.90;0.90;;;;;;;5.22;100.00;98804.13;4955561;28;20027;-74
2022/02/04 06:40:10;;;;;;;1.08;1.08;;;;;;;5.19;100.00;98803.25;4954385;29;20481;-74
2022/02/04 06:42:35;;;;;;;1.63;1.52;;;;;;;5.16;100.00;98806.63;4955815;29;20031;-74
2022/02/04 06:45:02;;;;;;;1.90;1.77;;;;;;;5.08;100.00;98809.19;4955481;29;20098;-74
2022/02/04 06:47:28;;;;;;;2.80;1.70;;;;;;;5.04;100.00;98804.03;4955295;28;20038;-74
2022/02/04 06:49:53;;;;;;;4.57;2.75;;;;;;;5.02;100.00;98806.56;4955461;29;20023;-74
2022/02/04 06:52:18;;;;;;;1.58;1.50;;;;;;;5.06;100.00;98812.59;4955428;29;20082;-74
2022/02/04 06:54:44;;;;;;;2.33;2.22;;;;;;;5.14;100.00;98816.91;4955352;28;20035;-75
2022/02/04 06:57:09;;;;;;;2.10;1.85;;;;;;;5.23;100.00;98810.09;4955182;28;20029;-74
2022/02/04 06:59:37;;;;;;;3.75;2.70;;;;;;;5.08;100.00;98805.78;4955289;28;20123;-74
2022/02/04 07:02:03;;;;;;;4.15;3.03;;;;;;;5.05;100.00;98816.00;4951689;28;20504;-74
2022/02/04 07:04:32;;;;;;;2.50;2.15;;;;;;;5.00;100.00;98813.44;4946784;29;20027;-74
2022/02/04 07:06:59;;;;;;;1.85;1.23;;;;;;;4.89;100.00;98822.78;4954918;28;20027;-74
2022/02/04 07:19:45;;;;;;;2.70;1.42;;;;;;;4.81;100.00;98797.06;4919080;28;20141;-74
2022/02/04 07:20:28;;;;;;;3.53;1.80;;;;;;;4.89;100.00;98810.81;4912037;29;20035;-74
2022/02/04 07:22:54;;;;;;;0.93;0.93;;;;;;;4.79;100.00;98814.19;4954978;29;20027;-74
2022/02/04 07:25:19;;;;;;;1.73;1.48;;;;;;;4.84;100.00;98807.38;4954746;28;20388;-74
2022/02/04 07:27:45;;;;;;;1.30;1.20;;;;;;;4.93;100.00;98811.66;4954737;28;20031;-74
2022/02/04 07:30:12;;;;;;;6.93;2.15;;;;;;;4.82;100.00;98810.75;4954203;28;20027;-74
2022/02/04 07:32:43;;;;;;;1.75;1.65;;;;;;;4.90;100.00;98816.81;4950884;28;20031;-74
2022/02/04 07:41:00;;;;;;;2.13;1.92;;;;;;;4.95;100.00;98814.25;4954785;29;20034;-74
2022/02/04 07:43:27;;;;;;;1.25;1.25;;;;;;;5.03;100.00;98813.44;4954735;28;20034;-74
2022/02/04 07:45:53;;;;;;;1.98;1.88;;;;;;;5.11;100.00;98816.03;4954318;28;20477;-74
2022/02/04 07:48:19;;;;;;;0.80;0.80;;;;;;;5.07;100.00;98809.16;4954414;28;20469;-74
2022/02/04 07:50:47;;;;;;;1.30;1.27;;;;;;;5.06;100.00;98815.16;4954417;28;20031;-74
2022/02/04 07:53:13;;;;;;;1.55;1.48;;;;;;;5.14;100.00;98819.47;4954322;28;20039;-74
2022/02/04 07:55:38;;;;;;;2.20;2.00;;;;;;;5.12;100.00;98823.72;4954245;28;20034;-74
2022/02/04 07:58:04;;;;;;;1.70;1.60;;;;;;;5.29;100.00;98821.25;4954276;28;20047;-74
2022/02/04 08:00:29;;;;;;;0.98;0.95;;;;;;;5.28;100.00;98822.13;4954282;29;20519;-75
2022/02/04 08:02:54;;;;;;;1.58;1.48;;;;;;;5.30;100.00;98822.09;4950285;28;20027;-74
2022/02/04 08:05:24;;;;;;;1.80;1.70;;;;;;;5.34;100.00;98824.69;4946067;28;20027;-74
2022/02/04 08:07:56;;;;;;;1.63;1.48;;;;;;;5.33;100.00;98822.97;4954237;28;20470;-74
2022/02/04 08:10:39;;;;;;;1.80;1.70;;;;;;;5.28;100.00;98824.69;4954264;28;20083;-75
2022/02/04 08:18:44;;;;;;;1.08;1.08;;;;;;;5.57;100.00;98821.34;4954224;29;20035;-74
2022/02/04 08:24:09;;;;;;;1.92;1.33;;;;;;;5.59;99.41;98809.34;4954050;29;20612;-74
2022/02/04 08:27:07;;;;;;;2.88;2.03;;;;;;;5.59;99.43;98806.78;4953700;28;20031;-75
2022/02/04 08:35:21;;;;;;;2.42;1.75;;;;;;;8.85;83.79;98784.81;4921439;29;20038;-75
2022/02/04 08:52:28;;;;;;;1.20;1.20;;;;;;;19.20;44.17;98775.47;4939145;29;20070;-74
2022/02/04 08:54:29;;;;;;;2.15;1.10;;;;;;;20.68;39.85;98768.09;4941590;29;20035;-74
2022/02/04 09:04:41;;;;;;;1.20;1.10;;;;;;;19.85;39.24;98769.34;4949523;29;20023;-75
2022/02/04 09:07:10;;;;;;;1.27;1.17;;;;;;;18.15;43.49;98773.78;4957085;28;20051;-75
2022/02/04 09:09:54;;;;;;;1.25;1.15;;;;;;;18.09;41.95;98774.09;4957329;28;20033;-75
2022/02/04 09:20:24;;;;;;;3.50;1.60;;;;;;;17.11;45.86;98786.47;4949267;28;20027;-75
2022/02/04 09:22:50;;;;;;;1.10;1.00;;;;;;;18.84;42.31;98777.38;4949388;28;20026;-75
2022/02/04 09:25:16;;;;;;;2.75;2.30;;;;;;;19.42;41.56;98769.03;4957128;28;20381;-76
2022/02/04 09:27:41;;;;;;;1.52;1.17;;;;;;;20.21;39.48;98775.19;4956893;28;20071;-76
2022/02/04 09:30:10;;;;;;;0.55;0.55;;;;;;;18.84;41.24;98778.22;4956926;28;20019;-75
2022/02/04 09:32:36;;;;;;;2.53;2.10;;;;;;;15.60;46.89;98780.47;4952875;28;20030;-75
2022/02/04 09:35:04;;;;;;;2.45;1.52;;;;;;;14.63;49.55;98766.63;4948690;28;20113;-75
2022/02/04 09:37:30;;;;;;;0.90;0.90;;;;;;;13.05;54.99;98773.25;4946555;28;20031;-75
2022/02/04 09:39:56;;;;;;;1.60;1.50;;;;;;;14.77;51.67;98763.53;4937438;29;20031;-75
2022/02/04 09:42:21;;;;;;;1.50;0.93;;;;;;;15.00;48.88;98760.97;4937307;29;20039;-75
2022/02/04 09:44:47;;;;;;;1.95;1.35;;;;;;;15.00;50.83;98754.91;4937421;29;20049;-75
2022/02/04 09:47:26;;;;;;;1.55;1.30;;;;;;;16.36;46.76;98747.81;4936983;29;20024;-75
2022/02/04 09:49:58;;;;;;;1.10;1.00;;;;;;;14.24;51.61;98763.56;4937344;29;20504;-75
2022/02/04 10:14:37;;;;;;;1.38;1.08;;;;;;;8.59;71.48;98764.44;4936813;29;20040;-75
2022/02/04 10:19:49;;;;;;;1.00;1.00;;;;;;;8.77;70.69;98758.25;4936692;29;20421;-75
2022/02/04 10:22:24;;;;;;;0.82;0.82;;;;;;;8.38;73.52;98763.78;4936832;29;20087;-75
2022/02/04 10:24:55;;;;;;;0.80;0.80;;;;;;;8.20;73.21;98756.19;4936662;29;20028;-75
2022/02/04 10:27:21;;;;;;;1.00;0.77;;;;;;;8.08;75.18;98753.72;4936380;29;20059;-75
2022/02/04 10:30:00;;;;;;;0.68;0.65;;;;;;;8.14;76.44;98754.50;4935661;29;20027;-74
2022/02/04 10:32:45;;;;;;;0.65;0.65;;;;;;;7.86;75.64;98764.19;4939159;29;20027;-74
2022/02/04 10:35:15;;;;;;;0.93;0.93;;;;;;;7.82;74.95;98762.50;4947242;28;20090;-74
2022/02/04 10:38:22;;;;;;;1.05;1.05;;;;;;;8.10;77.67;98751.97;4955655;28;20083;-74
2022/02/04 10:41:03;;;;;;;0.95;0.95;;;;;;;8.07;75.27;98746.81;4953390;29;20046;-74
2022/02/04 11:02:08;;;;;;;1.45;0.90;;;;;;;7.78;76.80;98721.25;4936186;29;20036;-74
2022/02/04 11:04:47;;;;;;;1.00;1.00;;;;;;;7.90;76.95;98718.59;4944517;28;20020;-74
2022/02/04 11:54:54;;;;;;;0.63;0.63;;;;;;;8.13;72.25;98677.97;4935044;29;20031;-72
2022/02/04 11:57:25;;;;;;;0.60;0.60;;;;;;;7.91;72.55;98679.88;4934790;29;20028;-72
2022/02/04 12:00:00;;;;;;;0.95;0.95;;;;;;;7.82;73.14;98672.22;4934526;29;20397;-72
2022/02/04 12:05:08;;;;;;;0.60;0.60;;;;;;;7.65;72.52;98656.91;4939378;29;20107;-72
2022/02/04 12:07:44;;;;;;;0.73;0.73;;;;;;;7.79;72.22;98643.91;4934711;29;20028;-72
2022/02/04 12:10:12;;;;;;;0.65;0.65;;;;;;;7.90;70.78;98649.81;4934965;29;20119;-72
2022/02/04 12:16:10;;;;;;;3.65;0.70;;;;;;;8.02;71.29;98632.47;4934673;29;20043;-71
2022/02/04 12:18:45;;;;;;;0.80;0.80;;;;;;;8.29;70.40;98634.78;4933112;29;20501;-71
2022/02/04 12:21:18;;;;;;;0.47;0.47;;;;;;;8.37;70.12;98633.00;4935005;29;20036;-72
2022/02/04 12:23:49;;;;;;;0.40;0.40;;;;;;;8.40;69.77;98632.94;4935009;29;20392;-71
2022/02/04 12:26:17;;;;;;;0.85;0.70;;;;;;;8.22;69.83;98628.00;4934566;29;20024;-72
2022/02/04 12:28:48;;;;;;;0.50;0.50;;;;;;;8.08;67.97;98627.28;4934806;29;20094;-72
2022/02/04 12:31:24;;;;;;;0.80;0.80;;;;;;;7.90;68.92;98611.09;4934925;29;20496;-72
2022/02/04 12:34:03;;;;;;;0.40;0.40;;;;;;;7.85;70.09;98619.75;4942375;29;20087;-71
2022/02/04 12:36:50;;;;;;;0.98;0.80;;;;;;;7.64;70.00;98618.22;4942127;29;20034;-72
2022/02/04 12:39:19;;;;;;;0.50;0.50;;;;;;;7.65;69.55;98615.66;4934791;29;20027;-72
2022/02/04 12:41:48;;;;;;;0.70;0.70;;;;;;;7.65;70.58;98609.63;4934749;29;20047;-72
2022/02/04 12:44:18;;;;;;;0.82;0.82;;;;;;;7.61;69.82;98602.78;4933653;29;20087;-71
2022/02/04 12:46:46;;;;;;;0.40;0.40;;;;;;;7.63;71.02;98607.06;4934199;29;20103;-72
2022/02/04 12:49:15;;;;;;;0.65;0.65;;;;;;;7.72;71.15;98604.41;4933854;29;20040;-73
2022/02/04 12:54:24;;;;;;;0.50;0.50;;;;;;;7.62;70.45;98589.03;4934312;29;20238;-71
2022/02/04 12:59:57;;;;;;;0.50;0.50;;;;;;;7.62;70.23;98586.44;4934438;29;20023;-71
2022/02/04 13:08:08;;;;;;;1.13;0.90;;;;;;;7.84;70.15;98572.50;4953228;29;20576;-71
2022/02/04 13:10:33;;;;;;;1.10;1.02;;;;;;;7.99;70.21;98574.91;4953149;28;20031;-71
2022/02/04 13:13:00;;;;;;;0.50;0.50;;;;;;;7.78;68.33;98574.25;4953258;29;20038;-72
2022/02/04 13:15:28;;;;;;;4.10;2.55;;;;;;;7.75;68.35;98562.25;4916200;28;20043;-71
2022/02/04 13:17:56;;;;;;;0.50;0.50;;;;;;;7.70;67.32;98558.88;4919825;29;20505;-72
2022/02/04 13:20:22;;;;;;;1.95;0.90;;;;;;;7.69;67.32;98559.75;4912167;29;20425;-72
2022/02/04 13:22:59;;;;;;;1.30;1.25;;;;;;;7.71;67.47;98568.31;4909226;29;20039;-71
2022/02/04 13:25:30;;;;;;;1.33;1.25;;;;;;;7.77;68.01;98568.25;4915032;29;20096;-71
2022/02/04 13:28:08;;;;;;;0.50;0.50;;;;;;;7.78;69.15;98564.78;4916706;29;20046;-71
2022/02/04 13:30:47;;;;;;;0.55;0.55;;;;;;;7.59;66.54;98564.16;4918416;29;20481;-71
2022/02/04 13:33:19;;;;;;;0.50;0.50;;;;;;;7.57;66.29;98559.84;4913426;29;20035;-71
2022/02/04 13:35:52;;;;;;;1.35;0.73;;;;;;;7.70;68.48;98566.63;4911952;29;20035;-71
2022/02/04 13:38:30;;;;;;;0.60;0.60;;;;;;;7.78;68.09;98559.63;4918376;29;20051;-71
2022/02/04 13:43:37;;;;;;;0.75;0.70;;;;;;;7.61;66.98;98551.22;4918220;29;20107;-71
2022/02/04 13:49:02;;;;;;;0.60;0.60;;;;;;;7.66;65.97;98554.63;4918155;29;20144;-71
2022/02/04 13:51:53;;;;;;;5.05;0.88;;;;;;;7.68;67.10;98550.28;4909864;29;20020;-77
2022/02/04 13:57:46;;;;;;;0.50;0.50;;;;;;;7.53;67.87;98553.88;4918137;29;20043;-72
2022/02/04 14:03:10;;;;;;;0.60;0.60;;;;;;;7.50;66.86;98553.06;4914000;29;20024;-71
2022/02/04 14:05:42;;;;;;;0.50;0.50;;;;;;;7.44;67.66;98548.78;4902983;29;20087;-72
2022/02/04 14:08:13;;;;;;;3.13;2.80;;;;;;;7.55;69.31;98561.59;4917904;29;20024;-72
2022/02/04 14:10:54;;;;;;;0.70;0.70;;;;;;;7.57;68.73;98552.13;4917747;29;20036;-71
2022/02/04 14:13:25;;;;;;;0.50;0.50;;;;;;;7.39;67.29;98558.28;4917964;29;20039;-72
2022/02/04 14:15:55;;;;;;;0.50;0.50;;;;;;;7.46;68.26;98547.94;4917091;29;20043;-72
2022/02/04 14:18:22;;;;;;;0.60;0.60;;;;;;;7.40;67.67;98545.41;4917700;29;20083;-72
2022/02/04 14:20:47;;;;;;;0.77;0.77;;;;;;;7.42;68.41;98545.38;4911474;29;20130;-72
2022/02/04 14:23:13;;;;;;;1.38;1.30;;;;;;;7.36;67.87;98551.47;4915274;29;20033;-72
2022/02/04 14:29:00;;;;;;;0.50;0.50;;;;;;;7.18;69.11;98549.03;4925268;29;20100;-71
2022/02/04 14:31:34;;;;;;;1.38;1.08;;;;;;;7.19;68.57;98535.28;4917911;29;20028;-71
2022/02/04 15:00:46;;;;;;;0.50;0.50;;;;;;;6.92;68.17;98524.34;4917247;29;20047;-71
2022/02/04 15:06:14;;;;;;;0.50;0.50;;;;;;;6.84;68.40;98510.66;4909715;29;20046;-71
2022/02/04 15:08:32;;;;;;;0.40;0.40;;;;;;;6.89;67.96;98521.78;4914087;29;20040;-71
2022/02/04 15:11:01;;;;;;;0.40;0.40;;;;;;;6.88;68.59;98517.50;4917015;29;20032;-71
2022/02/04 15:13:29;;;;;;;0.50;0.50;;;;;;;6.79;68.47;98522.72;4916855;29;20079;-72
2022/02/04 15:15:54;;;;;;;7.28;0.65;;;;;;;6.81;68.14;98531.25;4916212;29;20032;-71
2022/02/04 15:18:20;;;;;;;0.70;0.70;;;;;;;6.76;68.29;98517.56;4916857;29;20375;-71
2022/02/04 15:20:45;;;;;;;0.45;0.45;;;;;;;6.75;68.72;98515.88;4910797;29;20111;-71
2022/02/04 15:23:13;;;;;;;0.40;0.40;;;;;;;6.75;69.37;98518.44;4914143;29;20051;-72
2022/02/04 15:25:38;;;;;;;0.90;0.50;;;;;;;6.75;69.05;98505.56;4916642;29;20439;-72
2022/02/04 15:30:35;;;;;;;0.60;0.60;;;;;;;6.73;69.68;98497.00;4916666;29;20032;-71
2022/02/04 15:33:00;;;;;;;0.95;0.90;;;;;;;6.74;69.93;98495.28;4912650;29;20248;-71
2022/02/04 15:35:29;;;;;;;0.50;0.50;;;;;;;6.72;69.69;98485.00;4908459;29;20071;-71
2022/02/04 15:37:54;;;;;;;0.63;0.63;;;;;;;6.74;69.88;98480.69;4916323;29;20378;-71
2022/02/04 15:40:19;;;;;;;3.47;1.65;;;;;;;6.73;69.52;98481.56;4916584;29;20163;-71
2022/02/04 15:42:54;;;;;;;0.70;0.70;;;;;;;6.74;69.46;98490.16;4916422;29;20137;-71
2022/02/04 15:50:28;;;;;;;0.50;0.50;;;;;;;6.78;69.15;98484.97;4913174;29;20059;-72
2022/02/04 15:53:21;;;;;;;0.60;0.60;;;;;;;6.82;69.45;98496.09;4909984;29;20051;-71
2022/02/04 16:01:12;;;;;;;1.13;1.13;;;;;;;6.84;68.99;98489.22;4916509;29;20040;-72
2022/02/04 16:03:45;;;;;;;0.40;0.40;;;;;;;6.78;69.67;98484.09;4909195;29;20064;-72
2022/02/04 16:06:14;;;;;;;0.90;0.80;;;;;;;6.76;70.58;98476.38;4913138;29;20020;-71
2022/02/04 16:08:40;;;;;;;0.75;0.75;;;;;;;6.85;69.99;98481.47;4915971;29;20482;-72
2022/02/04 16:13:56;;;;;;;1.63;0.82;;;;;;;6.91;69.94;98486.59;4916035;29;20082;-71
2022/02/04 16:16:33;;;;;;;0.85;0.85;;;;;;;6.89;70.29;98483.16;4915599;29;20028;-72
2022/02/04 16:21:34;;;;;;;0.80;0.80;;;;;;;6.85;71.02;98478.88;4907287;29;20055;-72
2022/02/04 16:28:56;;;;;;;0.50;0.50;;;;;;;6.74;70.08;98478.13;4915951;29;20508;-72
2022/02/04 16:31:23;;;;;;;0.50;0.50;;;;;;;6.77;70.45;98462.66;4915884;29;20573;-71
2022/02/04 16:33:49;;;;;;;0.63;0.63;;;;;;;6.80;69.85;98462.63;4906275;29;20100;-71
2022/02/04 16:36:18;;;;;;;0.73;0.73;;;;;;;6.82;70.09;98466.06;4913195;29;20028;-72
2022/02/04 16:38:52;;;;;;;0.60;0.60;;;;;;;6.86;70.77;98456.56;4915725;29;20478;-71
2022/02/04 16:41:24;;;;;;;0.60;0.60;;;;;;;6.78;70.05;98456.63;4915945;29;20087;-72
2022/02/04 16:43:50;;;;;;;0.68;0.55;;;;;;;6.82;71.25;98455.75;4915683;29;20060;-71
2022/02/04 16:46:15;;;;;;;1.38;0.88;;;;;;;6.75;70.54;98448.94;4915536;29;20032;-71
2022/02/04 16:48:40;;;;;;;0.50;0.50;;;;;;;6.75;70.42;98441.19;4915750;29;20074;-72
2022/02/04 16:51:06;;;;;;;0.75;0.75;;;;;;;6.69;71.18;98444.69;4906846;29;20375;-72
2022/02/04 16:53:34;;;;;;;0.77;0.77;;;;;;;6.70;70.29;98437.81;4915649;29;20028;-71
2022/02/04 16:56:00;;;;;;;0.50;0.50;;;;;;;6.74;71.73;98448.94;4915213;29;20032;-71
2022/02/04 16:58:25;;;;;;;0.50;0.50;;;;;;;6.70;70.49;98456.69;4915572;29;20028;-71
2022/02/04 17:00:51;;;;;;;0.50;0.50;;;;;;;6.68;70.91;98452.44;4915476;29;20110;-71
2022/02/04 17:03:16;;;;;;;0.50;0.50;;;;;;;6.75;70.63;98448.94;4913026;29;20020;-71
2022/02/04 17:08:09;;;;;;;0.50;0.50;;;;;;;6.72;70.95;98451.53;4919340;29;20032;-71
2022/02/04 17:10:40;;;;;;;0.68;0.68;;;;;;;6.75;70.37;98454.06;4919177;29;20091;-71
2022/02/04 17:13:05;;;;;;;0.75;0.75;;;;;;;6.71;69.87;98447.25;4919139;29;20478;-71
2022/02/04 17:15:34;;;;;;;0.57;0.57;;;;;;;6.74;69.77;98456.69;4918770;29;20044;-71
2022/02/04 17:18:02;;;;;;;0.50;0.50;;;;;;;6.75;70.41;98459.22;4919019;29;20076;-71
2022/02/04 17:20:28;;;;;;;0.68;0.68;;;;;;;6.81;70.17;98459.16;4915355;29;20043;-71
2022/02/04 17:22:55;;;;;;;0.57;0.57;;;;;;;6.73;70.80;98455.81;4914004;29;20541;-71
2022/02/04 17:25:28;;;;;;;0.40;0.40;;;;;;;6.83;68.78;98447.16;4918953;29;20078;-71
2022/02/04 17:27:55;;;;;;;0.40;0.40;;;;;;;6.80;70.26;98452.31;4917562;29;20027;-71
2022/02/04 17:30:22;;;;;;;0.40;0.40;;;;;;;6.82;68.92;98460.91;4919553;29;20051;-70
2022/02/04 17:32:49;;;;;;;0.80;0.80;;;;;;;6.82;68.55;98453.19;4914811;29;20027;-69
2022/02/04 17:35:16;;;;;;;0.50;0.50;;;;;;;6.92;68.42;98462.53;4905165;29;20025;-69
2022/02/04 17:37:42;;;;;;;0.50;0.50;;;;;;;6.90;68.49;98463.41;4899513;29;20060;-70
2022/02/04 17:40:10;;;;;;;0.47;0.47;;;;;;;6.89;67.65;98459.13;4899835;29;20028;-69
2022/02/04 17:42:39;;;;;;;0.50;0.50;;;;;;;6.88;68.04;98460.00;4899987;29;20115;-69
2022/02/04 17:45:06;;;;;;;0.45;0.45;;;;;;;6.84;68.25;98474.59;4899148;29;20063;-70
2022/02/04 17:47:31;;;;;;;0.57;0.57;;;;;;;6.90;68.03;98474.53;4899324;29;20631;-69
2022/02/04 17:52:39;;;;;;;0.50;0.50;;;;;;;6.89;67.43;98478.00;4898727;29;20039;-69
2022/02/04 17:55:12;;;;;;;0.50;0.50;;;;;;;6.86;67.38;98472.00;4899642;29;20037;-70
2022/02/04 17:57:42;;;;;;;0.60;0.60;;;;;;;6.90;67.36;98478.84;4898349;29;20048;-69
2022/02/04 18:03:29;;;;;;;0.50;0.50;;;;;;;6.88;66.93;98481.44;4905533;29;20035;-70
2022/02/04 18:08:46;;;;;;;1.63;1.58;;;;;;;6.89;67.13;98472.84;4890458;29;20107;-69
2022/02/04 18:11:11;;;;;;;0.50;0.50;;;;;;;6.95;66.50;98472.78;4899180;29;20119;-70
2022/02/04 18:13:39;;;;;;;0.60;0.60;;;;;;;6.95;66.94;98475.38;4898766;29;20029;-72
2022/02/04 18:16:04;;;;;;;0.50;0.50;;;;;;;7.03;67.10;98474.47;4898077;29;20052;-70
2022/02/04 18:18:29;;;;;;;0.40;0.40;;;;;;;7.02;67.71;98477.91;4899045;29;20120;-69
2022/02/04 18:20:55;;;;;;;0.50;0.50;;;;;;;6.99;67.00;98477.91;4898293;29;20028;-70
2022/02/04 18:23:21;;;;;;;0.82;0.82;;;;;;;6.99;67.28;98483.06;4898905;29;20455;-70
2022/02/04 18:25:51;;;;;;;0.50;0.50;;;;;;;7.03;67.30;98487.34;4898935;29;20190;-69
2022/02/04 18:28:17;;;;;;;0.60;0.60;;;;;;;6.98;67.66;98487.38;4897888;29;20541;-70
2022/02/04 18:30:42;;;;;;;0.50;0.50;;;;;;;7.00;67.57;98484.78;4899056;29;20044;-70
2022/02/04 18:33:08;;;;;;;0.40;0.40;;;;;;;6.97;67.93;98484.81;4894053;29;20634;-69
2022/02/04 18:35:34;;;;;;;0.70;0.70;;;;;;;7.00;68.36;98479.63;4898603;29;20024;-69
2022/02/04 18:38:09;;;;;;;0.47;0.47;;;;;;;6.97;68.07;98487.41;4896812;29;20032;-70
2022/02/04 18:40:58;;;;;;;0.60;0.60;;;;;;;7.01;68.41;98487.34;4898574;29;20363;-70
2022/02/04 18:45:56;;;;;;;1.73;1.02;;;;;;;6.95;69.21;98498.53;4898320;29;20635;-69
2022/02/04 18:48:24;;;;;;;0.50;0.50;;;;;;;6.86;69.43;98495.19;4897713;29;20084;-70
2022/02/04 18:53:34;;;;;;;0.50;0.50;;;;;;;6.95;70.71;98503.69;4897730;29;20467;-69
2022/02/04 18:56:19;;;;;;;0.55;0.55;;;;;;;6.89;70.64;98513.19;4898070;29;20033;-69
2022/02/04 18:58:46;;;;;;;0.50;0.50;;;;;;;6.93;70.92;98515.75;4898544;29;20024;-70
2022/02/04 19:01:15;;;;;;;0.40;0.40;;;;;;;6.89;71.13;98529.50;4897107;29;20036;-70
2022/02/04 19:03:47;;;;;;;0.55;0.55;;;;;;;6.94;71.38;98526.91;4906013;29;20115;-69
2022/02/04 19:06:21;;;;;;;0.43;0.43;;;;;;;6.97;71.62;98526.03;4908114;29;20152;-69
2022/02/04 19:08:53;;;;;;;0.80;0.80;;;;;;;6.98;71.56;98532.88;4898198;29;20039;-69
2022/02/04 19:11:23;;;;;;;0.47;0.47;;;;;;;6.95;71.97;98539.75;4898200;29;20035;-69
2022/02/04 19:14:01;;;;;;;0.70;0.70;;;;;;;7.00;72.08;98533.72;4897322;29;20379;-70
2022/02/04 19:16:37;;;;;;;0.50;0.50;;;;;;;7.02;72.01;98524.28;4897517;29;20043;-69
2022/02/04 19:19:27;;;;;;;0.50;0.50;;;;;;;6.93;72.49;98526.03;4897294;29;20496;-69
2022/02/04 19:22:18;;;;;;;0.82;0.82;;;;;;;6.98;72.24;98527.72;4897647;29;20394;-69
2022/02/04 19:24:46;;;;;;;0.63;0.63;;;;;;;6.95;73.05;98529.44;4908579;29;20028;-69
2022/02/04 19:27:11;;;;;;;1.75;0.80;;;;;;;6.98;72.83;98532.88;4896652;29;20506;-69
2022/02/04 19:29:43;;;;;;;0.55;0.55;;;;;;;6.92;72.83;98529.50;4923854;29;20032;-69
2022/02/04 19:32:09;;;;;;;0.75;0.75;;;;;;;6.99;72.97;98524.28;4905746;29;20024;-69
2022/02/04 19:34:34;;;;;;;0.40;0.40;;;;;;;6.90;73.50;98531.19;4900667;29;20150;-69
2022/02/04 19:37:00;;;;;;;0.73;0.73;;;;;;;6.99;73.25;98525.13;4916259;29;20028;-69
2022/02/04 19:39:28;;;;;;;0.50;0.50;;;;;;;7.02;73.54;98519.97;4901219;29;20393;-70
2022/02/04 19:42:39;;;;;;;0.55;0.55;;;;;;;6.98;73.67;98525.16;4897627;29;20028;-70
2022/02/04 19:44:49;;;;;;;1.67;0.70;;;;;;;6.91;74.39;98532.06;4898633;29;20041;-70
2022/02/04 19:47:19;;;;;;;0.77;0.77;;;;;;;6.87;74.47;98528.66;4897004;29;20024;-69
2022/02/04 19:49:57;;;;;;;0.40;0.40;;;;;;;6.87;73.92;98520.94;4897728;29;20028;-69
2022/02/04 19:55:42;;;;;;;0.70;0.70;;;;;;;6.88;74.28;98517.50;4905438;29;20068;-69
2022/02/04 20:25:05;;;;;;;1.10;1.10;;;;;;;7.01;75.91;98509.66;4915843;29;20055;-70
2022/02/04 20:27:31;;;;;;;0.70;0.70;;;;;;;6.97;75.42;98510.56;4914552;29;20107;-70
2022/02/04 20:29:57;;;;;;;0.40;0.40;;;;;;;6.99;75.67;98511.41;4896686;29;20450;-69
2022/02/04 20:32:24;;;;;;;3.13;2.83;;;;;;;7.02;75.58;98511.41;4898486;29;20059;-69
2022/02/04 20:34:49;;;;;;;0.50;0.50;;;;;;;7.02;75.21;98508.81;4907779;29;20393;-69
2022/02/04 20:37:15;;;;;;;0.47;0.47;;;;;;;7.08;75.55;98513.91;4919897;29;20028;-69
2022/02/04 20:39:47;;;;;;;0.50;0.50;;;;;;;7.11;74.78;98498.44;4922206;29;20028;-69
2022/02/04 20:42:13;;;;;;;0.50;0.50;;;;;;;7.19;75.45;98509.50;4922037;29;20351;-69
2022/02/04 20:44:38;;;;;;;0.50;0.50;;;;;;;7.20;74.54;98511.22;4922012;29;20035;-69
2022/02/04 20:47:05;;;;;;;0.40;0.40;;;;;;;7.23;74.78;98508.63;4921871;29;20405;-69
2022/02/04 20:49:30;;;;;;;0.40;0.40;;;;;;;7.25;75.07;98513.75;4921937;29;20032;-69
2022/02/04 20:51:55;;;;;;;0.50;0.50;;;;;;;7.30;74.67;98519.72;4921981;29;20087;-69
2022/02/04 20:54:21;;;;;;;0.40;0.40;;;;;;;7.29;75.20;98513.72;4921775;29;20038;-69
2022/02/04 20:56:46;;;;;;;1.60;1.25;;;;;;;7.28;75.17;98518.88;4921730;29;20071;-69
2022/02/04 20:59:11;;;;;;;0.70;0.70;;;;;;;7.29;74.69;98523.16;4916421;29;20043;-69
2022/02/04 21:01:37;;;;;;;0.43;0.43;;;;;;;7.29;74.77;98513.72;4914277;29;20032;-69
2022/02/04 21:04:07;;;;;;;0.68;0.68;;;;;;;7.26;75.42;98524.06;4910753;29;20029;-69
2022/02/04 21:09:53;;;;;;;0.40;0.40;;;;;;;7.41;75.46;98521.34;4902855;29;20063;-69
2022/02/04 21:17:07;;;;;;;0.40;0.40;;;;;;;7.31;77.76;98522.31;4902532;29;20032;-69
2022/02/04 21:19:32;;;;;;;0.60;0.60;;;;;;;7.24;78.62;98525.78;4901941;29;20434;-69
2022/02/04 21:21:57;;;;;;;0.50;0.50;;;;;;;7.21;79.98;98530.97;4917241;29;20479;-69
2022/02/04 21:24:23;;;;;;;0.50;0.50;;;;;;;7.13;79.31;98532.75;4903009;29;20088;-69
2022/02/04 21:26:52;;;;;;;0.40;0.40;;;;;;;7.09;80.20;98541.38;4902607;29;20033;-69
2022/02/04 21:29:18;;;;;;;0.50;0.50;;;;;;;7.16;80.67;98537.91;4902692;29;20037;-69
2022/02/04 21:31:47;;;;;;;0.80;0.80;;;;;;;7.19;80.25;98537.84;4902692;29;20040;-69
2022/02/04 21:36:57;;;;;;;0.50;0.50;;;;;;;7.12;80.94;98536.22;4910799;29;20039;-69
2022/02/04 21:37:04;;;;;;;0.70;0.70;;;;;;;7.24;81.07;98546.41;4921229;29;20032;-71
2022/02/04 21:39:32;;;;;;;0.40;0.40;;;;;;;7.19;80.27;98549.00;4921594;29;20115;-69
2022/02/04 21:41:57;;;;;;;0.77;0.77;;;;;;;7.18;80.96;98551.59;4921417;29;20039;-69
2022/02/04 21:44:23;;;;;;;0.40;0.40;;;;;;;7.22;81.58;98553.31;4921677;29;20079;-69
2022/02/04 21:46:48;;;;;;;0.50;0.50;;;;;;;7.16;81.19;98553.34;4921289;29;20419;-69
2022/02/04 21:49:13;;;;;;;0.80;0.80;;;;;;;7.09;81.56;98564.56;4918237;29;20024;-69
2022/02/04 21:51:39;;;;;;;2.22;0.73;;;;;;;7.11;81.34;98570.56;4918617;29;20035;-69
2022/02/04 21:54:04;;;;;;;0.60;0.60;;;;;;;7.19;81.92;98584.22;4918532;29;20039;-69
2022/02/04 21:56:29;;;;;;;0.45;0.45;;;;;;;7.12;82.50;98585.16;4918183;29;20024;-69
2022/02/04 21:58:55;;;;;;;0.40;0.40;;;;;;;7.10;84.77;98592.03;4918343;29;20028;-69
2022/02/04 22:01:20;;;;;;;1.55;0.77;;;;;;;6.89;86.44;98605.91;4908768;28;20173;-69
2022/02/04 22:03:45;;;;;;;1.17;0.70;;;;;;;6.79;89.15;98641.16;4909204;29;20064;-69